| time (UTC) | temp F | wind direction | speed knots | gust knots | rain 1hr in | rain 24hr in | rain mn in | humidity % | barometer mb |
| 20260503004543 | 56 | 359 | 6.1 | 9.6 | 0.00 | 0.00 | 0.00 | 39 | 1019.8 |
| 20260503003052 | 57 | 237 | 6.1 | 9.6 | 0.00 | 0.00 | 0.00 | 38 | 1019.9 |
| 20260503001511 | 58 | 243 | 7.8 | 13.0 | 0.00 | 0.00 | 0.00 | 36 | 1020.0 |
| 20260503000016 | 58 | 231 | 7.8 | 13.9 | 0.00 | 0.00 | 0.00 | 34 | 1019.9 |
| 20260502234531 | 59 | 249 | 7.0 | 15.6 | 0.00 | 0.00 | 0.00 | 33 | 1020.3 |
| 20260502233041 | 59 | 250 | 11.3 | 16.5 | 0.00 | 0.00 | 0.00 | 32 | 1020.4 |
| 20260502231601 | 59 | 268 | 12.2 | 19.1 | 0.00 | 0.00 | 0.00 | 32 | 1020.6 |
| 20260502230051 | 60 | 228 | 10.4 | 18.2 | 0.00 | 0.00 | 0.00 | 31 | 1020.8 |
| 20260502224504 | 60 | 248 | 7.8 | 17.4 | 0.00 | 0.00 | 0.00 | 32 | 1020.9 |
| 20260502223009 | 60 | 223 | 12.2 | 18.2 | 0.00 | 0.00 | 0.00 | 32 | 1021.0 |
| 20260502221522 | 60 | 244 | 10.4 | 20.9 | 0.00 | 0.00 | 0.00 | 32 | 1021.2 |
| 20260502220035 | 60 | 263 | 11.3 | 19.1 | 0.00 | 0.00 | 0.00 | 31 | 1021.3 |
| 20260502214541 | 60 | 293 | 10.4 | 20.9 | 0.00 | 0.00 | 0.00 | 33 | 1021.3 |
| 20260502213052 | 60 | 237 | 9.6 | 16.5 | 0.00 | 0.00 | 0.00 | 31 | 1021.4 |
| 20260502211608 | 60 | 244 | 9.6 | 15.6 | 0.00 | 0.00 | 0.00 | 33 | 1021.6 |
| 20260502210007 | 59 | 281 | 8.7 | 20.9 | 0.00 | 0.00 | 0.00 | 33 | 1021.7 |
| 20260502204520 | 59 | 260 | 6.1 | 17.4 | 0.00 | 0.00 | 0.00 | 32 | 1021.8 |
| 20260502203026 | 60 | 239 | 8.7 | 17.4 | 0.00 | 0.00 | 0.00 | 32 | 1022.1 |
| 20260502201539 | 58 | 260 | 10.4 | 15.6 | 0.00 | 0.00 | 0.00 | 35 | 1022.5 |
| 20260502200044 | 58 | 258 | 7.8 | 16.5 | 0.00 | 0.00 | 0.00 | 33 | 1022.7 |
| 20260502194557 | 57 | 264 | 5.2 | 13.9 | 0.00 | 0.00 | 0.00 | 32 | 1023.0 |
| 20260502193002 | 57 | 271 | 6.1 | 16.5 | 0.00 | 0.00 | 0.00 | 34 | 1023.1 |
| 20260502191521 | 57 | 210 | 7.0 | 17.4 | 0.00 | 0.00 | 0.00 | 32 | 1023.2 |
| 20260502190020 | 57 | 220 | 6.1 | 13.9 | 0.00 | 0.00 | 0.00 | 34 | 1023.4 |
| 20260502184534 | 57 | 233 | 9.6 | 18.2 | 0.00 | 0.00 | 0.00 | 33 | 1023.6 |
| 20260502183042 | 57 | 303 | 3.5 | 9.6 | 0.00 | 0.00 | 0.00 | 36 | 1023.7 |
| 20260502181554 | 56 | 282 | 6.1 | 13.9 | 0.00 | 0.00 | 0.00 | 35 | 1023.9 |
| 20260502163010 | 52 | 359 | 7.0 | 14.8 | 0.00 | 0.00 | 0.00 | 38 | 1025.1 |
| 20260502161514 | 53 | 285 | 5.2 | 14.8 | 0.00 | 0.00 | 0.00 | 42 | 1025.2 |
| 20260502151611 | 51 | 359 | 7.8 | 13.0 | 0.00 | 0.00 | 0.00 | 49 | 1025.5 |
| 20260502123045 | 34 | 359 | 0.9 | 1.7 | 0.00 | 0.00 | 0.00 | 87 | 1025.6 |
| 20260502121554 | 33 | 359 | 0.9 | 1.7 | 0.00 | 0.00 | 0.00 | 87 | 1025.5 |
| 20260502114509 | 30 | 359 | 0.0 | 1.7 | 0.00 | 0.00 | 0.00 | 87 | 1025.4 |
| 20260502113023 | 30 | 359 | 0.0 | 2.6 | 0.00 | 0.00 | 0.00 | 87 | 1025.2 |
| 20260502111527 | 30 | 359 | 0.9 | 1.7 | 0.00 | 0.00 | 0.00 | 87 | 1025.0 |
| 20260502110039 | 30 | 359 | 0.0 | 0.9 | 0.00 | 0.00 | 0.00 | 86 | 1025.0 |
| 20260502104551 | 31 | 359 | 0.9 | 1.7 | 0.00 | 0.00 | 0.00 | 86 | 1024.8 |
| 20260502103108 | 31 | 359 | 0.0 | 0.0 | 0.00 | 0.00 | 0.00 | 86 | 1024.8 |
| 20260502101503 | 31 | 359 | 0.0 | 0.9 | 0.00 | 0.00 | 0.00 | 86 | 1024.7 |
| 20260502090112 | 35 | 359 | 0.0 | 0.9 | 0.00 | 0.00 | 0.00 | 79 | 1024.5 |
| 20260502070029 | 35 | 359 | 0.9 | 1.7 | 0.00 | 0.00 | 0.00 | 76 | 1025.0 |
| 20260502064548 | 35 | 359 | 0.9 | 1.7 | 0.00 | 0.00 | 0.00 | 76 | 1025.0 |
| 20260502063051 | 35 | 359 | 0.9 | 1.7 | 0.00 | 0.00 | 0.00 | 77 | 1025.1 |
| 20260502061504 | 36 | 359 | 0.0 | 0.9 | 0.00 | 0.00 | 0.00 | 75 | 1025.1 |
| 20260502060011 | 37 | 359 | 0.9 | 2.6 | 0.00 | 0.00 | 0.00 | 75 | 1025.0 |
| 20260502054523 | 36 | 359 | 0.9 | 1.7 | 0.00 | 0.00 | 0.00 | 76 | 1024.9 |
| 20260502053033 | 36 | 359 | 0.0 | 0.9 | 0.00 | 0.00 | 0.00 | 76 | 1024.9 |
| 20260502051607 | 36 | 359 | 0.0 | 1.7 | 0.00 | 0.00 | 0.00 | 75 | 1024.8 |
| 20260502050058 | 37 | 359 | 0.0 | 2.6 | 0.00 | 0.00 | 0.00 | 74 | 1024.7 |
| 20260502044605 | 37 | 359 | 0.0 | 0.9 | 0.00 | 0.00 | 0.00 | 72 | 1024.5 |
| 20260502043006 | 38 | 359 | 1.7 | 2.6 | 0.00 | 0.00 | 0.00 | 71 | 1024.4 |
| 20260502041513 | 39 | 359 | 0.9 | 1.7 | 0.00 | 0.00 | 0.00 | 68 | 1024.1 |
| 20260502040024 | 41 | 359 | 1.7 | 3.5 | 0.00 | 0.00 | 0.00 | 63 | 1024.1 |
| 20260502034541 | 41 | 359 | 0.9 | 2.6 | 0.00 | 0.00 | 0.00 | 64 | 1024.1 |
| 20260502033051 | 42 | 359 | 1.7 | 3.5 | 0.00 | 0.00 | 0.00 | 60 | 1023.9 |
| 20260502031608 | 43 | 359 | 1.7 | 2.6 | 0.00 | 0.00 | 0.00 | 58 | 1023.7 |
| 20260502030007 | 43 | 359 | 0.9 | 2.6 | 0.00 | 0.00 | 0.00 | 57 | 1023.7 |
| 20260502024512 | 44 | 359 | 0.9 | 2.6 | 0.00 | 0.00 | 0.00 | 57 | 1023.5 |
| 20260502023029 | 45 | 359 | 1.7 | 3.5 | 0.00 | 0.00 | 0.00 | 56 | 1023.3 |
| 20260502021534 | 45 | 359 | 1.7 | 3.5 | 0.00 | 0.00 | 0.00 | 54 | 1023.2 |
| 20260502020100 | 46 | 359 | 1.7 | 3.5 | 0.00 | 0.00 | 0.00 | 52 | 1023.0 |
| 20260502014552 | 47 | 359 | 1.7 | 5.2 | 0.00 | 0.00 | 0.00 | 51 | 1022.8 |
| 20260502013004 | 48 | 359 | 1.7 | 3.5 | 0.00 | 0.00 | 0.00 | 49 | 1022.5 |
| 20260502011516 | 49 | 359 | 1.7 | 5.2 | 0.00 | 0.00 | 0.00 | 48 | 1022.5 |
| 20260502010026 | 50 | 359 | 4.3 | 8.7 | 0.00 | 0.00 | 0.00 | 45 | 1022.3 |